createdAt,value
2017-11-09T00:03:43.071Z,63.19
2017-11-09T00:06:16.860Z,63.22
2017-11-09T00:08:45.228Z,63.27
2017-11-09T00:11:13.614Z,63.17
2017-11-09T00:13:42.004Z,63.13
2017-11-09T00:16:10.370Z,63.13
2017-11-09T00:18:38.745Z,63.09
2017-11-09T00:21:07.125Z,63.24
2017-11-09T00:23:35.491Z,63.28
2017-11-09T00:26:03.870Z,63.24
2017-11-09T00:28:32.244Z,63.08
2017-11-09T00:31:00.619Z,63.05
2017-11-09T00:33:28.991Z,63.01
2017-11-09T00:35:57.364Z,63.07
2017-11-09T00:38:26.509Z,63.11
2017-11-09T00:40:54.890Z,63.06
2017-11-09T00:43:23.274Z,63.02
2017-11-09T00:45:51.658Z,63.02
2017-11-09T00:48:20.032Z,63.05
2017-11-09T00:50:48.408Z,63.02
2017-11-09T00:53:16.785Z,63.05
2017-11-09T00:55:45.167Z,63.08
2017-11-09T00:58:13.545Z,63.27
2017-11-09T01:00:41.937Z,63.29
2017-11-09T01:03:10.308Z,63.27
2017-11-09T01:05:38.684Z,63.33
2017-11-09T01:08:07.048Z,63.36
2017-11-09T01:10:35.440Z,63.39
2017-11-09T01:13:03.820Z,63.46
2017-11-09T01:15:32.199Z,63.48
2017-11-09T01:18:00.595Z,63.58
2017-11-09T01:20:28.968Z,63.56
2017-11-09T01:22:57.345Z,63.60
2017-11-09T01:25:25.718Z,63.53
2017-11-09T01:27:54.094Z,63.52
2017-11-09T01:30:22.465Z,63.52
2017-11-09T01:32:50.840Z,63.50
2017-11-09T01:35:19.221Z,63.50
2017-11-09T01:37:47.600Z,63.47
2017-11-09T01:40:15.977Z,63.59
2017-11-09T01:42:44.343Z,63.50
2017-11-09T01:45:12.704Z,63.48
2017-11-09T01:47:41.842Z,63.61
2017-11-09T01:50:10.218Z,63.61
2017-11-09T01:52:38.596Z,63.61
2017-11-09T01:55:06.974Z,63.54
2017-11-09T01:57:35.352Z,63.43
2017-11-09T02:00:03.739Z,63.37
2017-11-09T02:02:32.115Z,63.33
2017-11-09T02:05:00.487Z,63.37
2017-11-09T02:07:28.864Z,63.48
2017-11-09T02:09:57.228Z,63.48
2017-11-09T02:12:25.606Z,63.52
2017-11-09T02:14:54.004Z,63.55
2017-11-09T02:17:22.387Z,63.67
2017-11-09T02:19:50.775Z,63.73
2017-11-09T02:22:19.160Z,63.78
2017-11-09T02:24:47.532Z,63.70
2017-11-09T02:27:15.902Z,63.86
2017-11-09T02:29:44.296Z,63.86
2017-11-09T02:32:12.670Z,63.80
2017-11-09T02:34:41.048Z,63.90
2017-11-09T02:37:09.433Z,64.12
2017-11-09T02:39:37.808Z,64.10
2017-11-09T02:42:06.188Z,64.08
2017-11-09T02:44:34.580Z,63.99
2017-11-09T02:47:02.951Z,63.88
2017-11-09T02:49:31.334Z,63.89
2017-11-09T02:51:59.702Z,63.87
2017-11-09T02:54:30.790Z,63.95
2017-11-09T02:56:59.949Z,64.18
2017-11-09T02:59:28.326Z,64.07
2017-11-09T03:01:56.709Z,63.99
2017-11-09T03:04:25.101Z,63.93
2017-11-09T03:06:53.467Z,64.01
2017-11-09T03:09:21.840Z,64.12
2017-11-09T03:11:50.238Z,63.96
2017-11-09T03:14:18.610Z,64.05
2017-11-09T03:16:46.981Z,63.96
2017-11-09T03:19:15.365Z,63.93
2017-11-09T03:21:43.741Z,63.86
2017-11-09T03:24:12.137Z,63.97
2017-11-09T03:26:42.020Z,63.99
2017-11-09T03:29:10.397Z,64.03
2017-11-09T03:31:38.780Z,64.02
2017-11-09T03:34:07.209Z,63.99
2017-11-09T03:36:35.590Z,63.98
2017-11-09T03:39:04.728Z,64.03
2017-11-09T03:41:33.099Z,64.13
2017-11-09T03:44:01.468Z,64.05
2017-11-09T03:46:29.843Z,63.96
2017-11-09T03:48:58.989Z,64.17
2017-11-09T03:51:27.374Z,64.22
2017-11-09T03:53:55.756Z,64.23
2017-11-09T03:56:24.127Z,63.98
2017-11-09T03:58:52.522Z,64.07
2017-11-09T04:01:20.896Z,64.08
2017-11-09T04:03:49.272Z,64.06
2017-11-09T04:06:17.648Z,64.06
2017-11-09T04:08:46.024Z,64.06
2017-11-09T04:11:14.400Z,64.00
2017-11-09T04:13:42.780Z,64.02
2017-11-09T04:16:11.154Z,64.02
2017-11-09T04:18:39.536Z,64.03
2017-11-09T04:21:07.911Z,63.94
2017-11-09T04:23:36.279Z,64.02
2017-11-09T04:26:04.656Z,64.08
2017-11-09T04:28:33.033Z,63.96
2017-11-09T04:31:01.413Z,64.01
2017-11-09T04:33:29.783Z,63.96
2017-11-09T04:35:58.156Z,64.07
2017-11-09T04:38:26.530Z,64.11
2017-11-09T04:40:54.919Z,64.25
2017-11-09T04:43:23.288Z,64.27
2017-11-09T04:45:51.668Z,64.22
2017-11-09T04:48:20.044Z,64.25
2017-11-09T04:50:48.416Z,64.26
2017-11-09T04:53:17.559Z,64.30
2017-11-09T04:55:45.941Z,64.29
2017-11-09T04:58:14.325Z,64.28
2017-11-09T05:00:42.707Z,64.23
2017-11-09T05:03:11.084Z,64.33
2017-11-09T05:05:39.483Z,64.37
2017-11-09T05:08:07.855Z,64.36
2017-11-09T05:10:36.223Z,64.14
2017-11-09T05:13:04.587Z,64.16
2017-11-09T05:15:32.959Z,64.21
2017-11-09T05:18:01.323Z,64.18
2017-11-09T05:20:29.700Z,64.18
2017-11-09T05:22:58.081Z,64.19
2017-11-09T05:25:26.476Z,64.15
2017-11-09T05:27:54.866Z,64.11
2017-11-09T05:30:23.255Z,64.17
2017-11-09T05:32:51.637Z,64.28
2017-11-09T05:35:20.018Z,64.23
2017-11-09T05:37:48.426Z,64.28
2017-11-09T05:40:17.575Z,64.33
2017-11-09T05:42:45.951Z,64.33
2017-11-09T05:45:14.315Z,64.13
2017-11-09T05:47:42.683Z,64.07
2017-11-09T05:50:11.056Z,63.98
2017-11-09T05:52:40.344Z,64.11
2017-11-09T05:55:09.487Z,64.23
2017-11-09T05:57:37.869Z,64.21
2017-11-09T06:00:06.239Z,64.00
2017-11-09T06:02:34.618Z,64.09
2017-11-09T06:05:03.003Z,64.10
2017-11-09T06:07:31.384Z,64.02
2017-11-09T06:09:59.764Z,64.17
2017-11-09T06:12:28.145Z,64.27
2017-11-09T06:14:56.519Z,64.31
2017-11-09T06:17:24.897Z,64.22
2017-11-09T06:19:53.276Z,64.30
2017-11-09T06:22:21.658Z,64.26
2017-11-09T06:24:50.038Z,64.28
2017-11-09T06:27:19.229Z,64.20
2017-11-09T06:29:47.608Z,64.21
2017-11-09T06:32:15.979Z,64.22
2017-11-09T06:34:44.350Z,64.26
2017-11-09T06:37:12.732Z,64.22
2017-11-09T06:39:41.125Z,64.19
2017-11-09T06:42:09.496Z,64.10
2017-11-09T06:44:37.863Z,64.22
2017-11-09T06:47:06.271Z,64.20
2017-11-09T06:49:34.676Z,64.21
2017-11-09T06:52:03.098Z,64.03
2017-11-09T06:54:32.254Z,64.02
2017-11-09T06:57:00.629Z,63.97
2017-11-09T06:59:29.005Z,64.06
2017-11-09T07:01:57.379Z,64.95
2017-11-09T07:04:25.757Z,64.11
2017-11-09T07:06:54.134Z,63.94
2017-11-09T07:09:22.519Z,63.79
2017-11-09T07:11:50.896Z,63.73
2017-11-09T07:14:19.280Z,63.71
2017-11-09T07:16:47.655Z,63.90
2017-11-09T07:19:16.035Z,63.86
2017-11-09T07:21:44.411Z,63.89
2017-11-09T07:24:12.804Z,63.76
2017-11-09T07:26:41.177Z,63.62
2017-11-09T07:29:09.557Z,63.65
2017-11-09T07:31:37.933Z,63.60
2017-11-09T07:34:06.319Z,63.68
2017-11-09T07:36:34.691Z,63.57
2017-11-09T07:39:03.067Z,63.73
2017-11-09T07:41:31.443Z,63.73
2017-11-09T07:43:59.820Z,63.62
2017-11-09T07:46:28.199Z,63.70
2017-11-09T07:48:56.573Z,63.73
2017-11-09T07:51:24.947Z,63.82
2017-11-09T07:53:53.315Z,63.78
2017-11-09T07:56:21.687Z,63.77
2017-11-09T07:58:50.052Z,63.78
2017-11-09T08:01:19.191Z,63.74
2017-11-09T08:03:47.568Z,63.86
2017-11-09T08:06:15.943Z,63.86
2017-11-09T08:08:44.327Z,63.90
2017-11-09T08:11:12.703Z,63.79
2017-11-09T08:13:41.079Z,63.80
2017-11-09T08:16:09.459Z,63.83
2017-11-09T08:18:37.832Z,63.72
2017-11-09T08:21:06.215Z,63.75
2017-11-09T08:23:34.612Z,63.61
2017-11-09T08:26:04.436Z,63.69
2017-11-09T08:28:39.659Z,63.58
2017-11-09T08:31:12.909Z,63.77
2017-11-09T08:33:43.385Z,63.75
2017-11-09T08:36:11.769Z,63.64
2017-11-09T08:38:40.147Z,63.52
2017-11-09T08:41:08.517Z,63.59
2017-11-09T08:43:36.903Z,63.50
2017-11-09T08:46:05.275Z,63.45
2017-11-09T08:48:33.676Z,63.55
2017-11-09T08:51:02.053Z,63.36
2017-11-09T08:53:30.423Z,63.41
2017-11-09T08:55:58.802Z,63.39
2017-11-09T08:58:27.237Z,63.26
2017-11-09T09:00:55.606Z,63.08
2017-11-09T09:03:24.757Z,63.26
2017-11-09T09:05:53.137Z,63.41
2017-11-09T09:08:21.550Z,63.42
2017-11-09T09:10:50.700Z,63.52
2017-11-09T09:13:19.081Z,63.51
2017-11-09T09:15:47.461Z,63.38
2017-11-09T09:18:15.835Z,63.41
2017-11-09T09:20:45.514Z,63.50
2017-11-09T09:23:14.656Z,63.56
2017-11-09T09:25:43.410Z,63.47
2017-11-09T09:28:12.686Z,63.40
2017-11-09T09:30:42.520Z,63.27
2017-11-09T09:33:13.278Z,63.18
2017-11-09T09:35:47.673Z,63.04
2017-11-09T09:38:22.438Z,62.88
2017-11-09T09:40:50.840Z,62.46
2017-11-09T09:43:19.216Z,62.54
2017-11-09T09:45:47.592Z,62.33
2017-11-09T09:48:15.972Z,62.46
2017-11-09T09:50:44.360Z,62.36
2017-11-09T09:53:12.744Z,62.28
2017-11-09T09:55:41.130Z,62.49
2017-11-09T09:58:10.275Z,62.58
2017-11-09T10:00:38.648Z,62.38
2017-11-09T10:03:07.020Z,62.39
2017-11-09T10:05:35.396Z,62.54
2017-11-09T10:08:03.782Z,62.52
2017-11-09T10:10:32.172Z,62.59
2017-11-09T10:13:00.569Z,62.57
2017-11-09T10:15:28.958Z,62.68
2017-11-09T10:17:57.324Z,62.54
2017-11-09T10:20:25.709Z,62.55
2017-11-09T10:22:54.089Z,62.51
2017-11-09T10:25:22.472Z,62.60
2017-11-09T10:27:50.856Z,62.58
2017-11-09T10:30:19.226Z,62.62
2017-11-09T10:32:47.599Z,62.58
2017-11-09T10:35:15.971Z,62.61
2017-11-09T10:37:44.342Z,62.57
2017-11-09T10:40:12.727Z,62.54
2017-11-09T10:42:41.106Z,62.43
2017-11-09T10:45:09.486Z,62.42
2017-11-09T10:47:37.865Z,62.45
2017-11-09T10:50:06.251Z,62.40
2017-11-09T10:52:34.680Z,62.40
2017-11-09T10:55:03.863Z,62.59
2017-11-09T10:57:32.244Z,62.57
2017-11-09T11:00:00.619Z,62.54
2017-11-09T11:02:28.995Z,62.54
2017-11-09T11:04:57.367Z,62.40
2017-11-09T11:07:25.744Z,62.59
2017-11-09T11:09:54.119Z,62.49
2017-11-09T11:12:22.502Z,62.48
2017-11-09T11:14:50.873Z,62.50
2017-11-09T11:17:19.249Z,62.52
2017-11-09T11:19:47.634Z,62.54
2017-11-09T11:22:16.008Z,62.49
2017-11-09T11:24:44.383Z,62.54
2017-11-09T11:27:12.779Z,62.52
2017-11-09T11:29:41.152Z,62.52
2017-11-09T11:32:09.516Z,62.46
2017-11-09T11:34:37.883Z,62.37
2017-11-09T11:37:06.263Z,62.38
2017-11-09T11:39:34.679Z,62.46
2017-11-09T11:42:03.064Z,62.52
2017-11-09T11:44:31.448Z,62.45
2017-11-09T11:46:59.821Z,62.45
2017-11-09T11:49:28.195Z,62.55
2017-11-09T11:51:56.581Z,62.62
2017-11-09T11:54:24.961Z,62.70
2017-11-09T11:56:53.354Z,62.68
2017-11-09T11:59:22.511Z,62.63
2017-11-09T12:01:50.892Z,62.63
2017-11-09T12:04:25.747Z,62.64
2017-11-09T12:06:54.124Z,62.64
2017-11-09T12:09:22.505Z,62.58
2017-11-09T12:11:53.717Z,62.53
2017-11-09T12:14:22.111Z,62.52
2017-11-09T12:16:50.488Z,62.49
2017-11-09T12:19:18.881Z,62.61
2017-11-09T12:21:47.256Z,62.71
2017-11-09T12:24:15.655Z,62.73
2017-11-09T12:26:44.024Z,62.71
2017-11-09T12:29:14.248Z,62.51
2017-11-09T12:31:42.618Z,62.54
2017-11-09T12:34:10.982Z,62.57
2017-11-09T12:36:39.369Z,62.53
2017-11-09T12:39:07.740Z,62.64
2017-11-09T12:41:36.112Z,62.73
2017-11-09T12:44:04.508Z,62.81
2017-11-09T12:46:32.892Z,62.79
2017-11-09T12:49:01.268Z,62.77
2017-11-09T12:51:29.711Z,62.88
2017-11-09T12:53:58.090Z,62.87
2017-11-09T12:56:26.476Z,62.79
2017-11-09T12:58:54.847Z,62.89
2017-11-09T13:01:23.224Z,62.86
2017-11-09T13:03:51.590Z,62.80
2017-11-09T13:06:20.739Z,62.85
2017-11-09T13:08:49.115Z,62.73
2017-11-09T13:11:17.496Z,62.77
2017-11-09T13:13:45.876Z,62.78
2017-11-09T13:16:14.255Z,62.83
2017-11-09T13:18:42.635Z,62.91
2017-11-09T13:21:11.017Z,62.87
2017-11-09T13:23:39.395Z,62.81
2017-11-09T13:26:07.771Z,62.87
2017-11-09T13:28:36.156Z,62.84
2017-11-09T13:31:04.532Z,63.00
2017-11-09T13:33:32.922Z,62.90
2017-11-09T13:36:01.315Z,62.97
2017-11-09T13:38:29.683Z,62.95
2017-11-09T13:40:58.069Z,62.91
2017-11-09T13:43:26.461Z,63.06
2017-11-09T13:45:55.623Z,63.11
2017-11-09T13:48:24.022Z,63.12
2017-11-09T13:50:52.399Z,63.06
2017-11-09T13:53:20.776Z,63.13
2017-11-09T13:55:49.166Z,63.11
2017-11-09T13:58:17.543Z,63.11
2017-11-09T14:00:45.907Z,63.25
2017-11-09T14:03:14.289Z,63.24
2017-11-09T14:05:42.669Z,63.30
2017-11-09T14:08:11.050Z,63.36
2017-11-09T14:10:39.442Z,63.34
2017-11-09T14:13:07.815Z,63.37
2017-11-09T14:15:36.196Z,63.44
2017-11-09T14:18:04.569Z,63.41
2017-11-09T14:20:32.945Z,63.42
2017-11-09T14:23:01.330Z,63.49
2017-11-09T14:25:30.471Z,63.61
2017-11-09T14:27:58.851Z,63.68
2017-11-09T14:30:27.233Z,63.76
2017-11-09T14:32:55.607Z,63.75
2017-11-09T14:35:24.757Z,63.86
2017-11-09T14:37:53.132Z,63.71
2017-11-09T14:40:23.301Z,63.82
2017-11-09T14:42:52.453Z,63.85
2017-11-09T14:45:20.856Z,63.89
2017-11-09T14:47:50.021Z,63.79
2017-11-09T14:50:18.408Z,63.78
2017-11-09T14:52:46.783Z,63.87
2017-11-09T14:55:15.169Z,63.99
2017-11-09T14:57:43.554Z,64.01
2017-11-09T15:00:11.990Z,64.00
2017-11-09T15:02:40.368Z,64.11
2017-11-09T15:05:08.734Z,64.13
2017-11-09T15:07:37.226Z,64.15
2017-11-09T15:10:05.604Z,64.24
2017-11-09T15:12:34.091Z,64.24
2017-11-09T15:15:02.479Z,64.25
2017-11-09T15:17:30.861Z,64.26
2017-11-09T15:19:59.246Z,64.43
2017-11-09T15:22:27.629Z,64.43
2017-11-09T15:24:56.008Z,64.48
2017-11-09T15:27:24.376Z,64.54
2017-11-09T15:29:52.762Z,64.48
2017-11-09T15:32:21.143Z,64.55
2017-11-09T15:34:50.468Z,64.59
2017-11-09T15:37:18.864Z,64.57
2017-11-09T15:39:47.252Z,64.61
2017-11-09T15:42:16.406Z,64.74
2017-11-09T15:44:44.796Z,64.79
2017-11-09T15:47:13.175Z,64.71
2017-11-09T15:49:41.558Z,64.76
2017-11-09T15:52:09.937Z,64.89
2017-11-09T15:54:38.342Z,64.83
2017-11-09T15:57:07.494Z,64.93
2017-11-09T15:59:35.902Z,64.94
2017-11-09T16:02:04.298Z,64.90
2017-11-09T16:04:33.459Z,65.11
2017-11-09T16:07:01.831Z,64.97
2017-11-09T16:09:30.212Z,65.02
2017-11-09T16:11:58.600Z,65.12
2017-11-09T16:14:26.980Z,65.15
2017-11-09T16:16:55.369Z,65.12
2017-11-09T16:19:23.751Z,65.16
2017-11-09T16:21:52.131Z,65.19
2017-11-09T16:24:20.521Z,65.30
2017-11-09T16:26:48.907Z,65.37
2017-11-09T16:29:17.320Z,65.37
2017-11-09T16:31:45.704Z,65.38
2017-11-09T16:34:14.106Z,65.38
2017-11-09T16:36:42.490Z,65.42
2017-11-09T16:39:10.876Z,65.34
2017-11-09T16:41:39.260Z,65.42
2017-11-09T16:44:07.634Z,65.39
2017-11-09T16:46:36.020Z,65.44
2017-11-09T16:49:04.389Z,65.48
2017-11-09T16:51:32.780Z,65.52
2017-11-09T16:54:01.191Z,65.53
2017-11-09T16:56:30.337Z,65.61
2017-11-09T16:58:58.722Z,65.60
2017-11-09T17:01:27.096Z,65.71
2017-11-09T17:03:55.479Z,65.66
2017-11-09T17:06:23.860Z,65.71
2017-11-09T17:08:52.233Z,65.74
2017-11-09T17:11:27.006Z,65.72
2017-11-09T17:13:56.545Z,65.80
2017-11-09T17:16:24.920Z,65.75
2017-11-09T17:18:53.301Z,65.72
2017-11-09T17:21:21.681Z,65.73
2017-11-09T17:23:50.051Z,65.78
2017-11-09T17:26:19.191Z,65.76
2017-11-09T17:28:47.642Z,65.83
2017-11-09T17:31:16.018Z,65.82
2017-11-09T17:33:44.400Z,65.81
2017-11-09T17:36:12.781Z,65.84
2017-11-09T17:38:41.153Z,65.88
2017-11-09T17:41:09.527Z,65.81
2017-11-09T17:43:38.673Z,65.93
2017-11-09T17:46:07.052Z,65.90
2017-11-09T17:48:35.443Z,65.89
2017-11-09T17:51:03.828Z,65.86
2017-11-09T17:53:32.196Z,65.86
2017-11-09T17:56:08.042Z,65.86
2017-11-09T17:58:38.250Z,65.91
2017-11-09T18:01:06.633Z,65.89
2017-11-09T18:03:35.015Z,65.95
2017-11-09T18:06:03.392Z,65.90
2017-11-09T18:08:31.772Z,65.83
2017-11-09T18:11:00.152Z,65.87
2017-11-09T18:13:28.538Z,66.01
2017-11-09T18:15:56.923Z,65.94
2017-11-09T18:18:25.300Z,65.92
2017-11-09T18:20:53.685Z,65.97
2017-11-09T18:23:22.072Z,66.02
2017-11-09T18:25:50.456Z,65.95
2017-11-09T18:28:19.707Z,66.01
2017-11-09T18:30:48.084Z,65.96
2017-11-09T18:33:16.471Z,65.98
2017-11-09T18:35:44.847Z,65.98
2017-11-09T18:38:13.220Z,65.99
2017-11-09T18:40:41.589Z,66.04
2017-11-09T18:43:10.737Z,66.00
2017-11-09T18:45:39.116Z,66.00
2017-11-09T18:48:07.492Z,66.01
2017-11-09T18:50:35.867Z,66.00
2017-11-09T18:53:04.249Z,65.94
2017-11-09T18:55:32.624Z,65.95
2017-11-09T18:58:01.013Z,65.96
2017-11-09T19:00:29.388Z,65.98
2017-11-09T19:02:57.774Z,65.92
2017-11-09T19:05:26.177Z,65.97
2017-11-09T19:07:55.331Z,66.03
2017-11-09T19:10:23.710Z,65.98
2017-11-09T19:12:52.087Z,65.99
2017-11-09T19:15:20.462Z,66.00
2017-11-09T19:17:48.838Z,65.98
2017-11-09T19:20:17.221Z,65.95
2017-11-09T19:22:45.607Z,65.98
2017-11-09T19:25:14.958Z,65.99
2017-11-09T19:27:44.105Z,66.06
2017-11-09T19:30:12.483Z,65.96
2017-11-09T19:32:40.865Z,65.96
2017-11-09T19:35:09.244Z,66.03
2017-11-09T19:37:37.619Z,65.96
2017-11-09T19:40:06.004Z,66.01
2017-11-09T19:42:34.756Z,65.97
2017-11-09T19:45:03.191Z,65.89
2017-11-09T19:47:31.587Z,65.92
2017-11-09T19:49:59.981Z,65.91
2017-11-09T19:52:29.138Z,65.97
2017-11-09T19:54:57.537Z,65.97
2017-11-09T19:57:25.916Z,65.99
2017-11-09T19:59:55.060Z,65.91
2017-11-09T20:02:23.453Z,65.89
2017-11-09T20:04:51.842Z,65.90
2017-11-09T20:07:20.380Z,65.93
2017-11-09T20:09:48.779Z,65.89
2017-11-09T20:12:17.163Z,65.88
2017-11-09T20:14:45.535Z,65.86
2017-11-09T20:17:13.919Z,65.95
2017-11-09T20:19:42.295Z,65.92
2017-11-09T20:22:10.681Z,65.88
2017-11-09T20:24:39.064Z,65.82
2017-11-09T20:27:07.437Z,65.84
2017-11-09T20:29:35.816Z,65.81
2017-11-09T20:32:04.318Z,65.79
2017-11-09T20:34:32.703Z,65.81
2017-11-09T20:37:01.130Z,65.85
2017-11-09T20:39:30.281Z,65.77
2017-11-09T20:41:58.653Z,65.78
2017-11-09T20:44:27.597Z,65.76
2017-11-09T20:46:56.783Z,65.74
2017-11-09T20:49:25.278Z,65.60
2017-11-09T20:51:55.299Z,65.65
2017-11-09T20:54:24.441Z,65.67
2017-11-09T20:56:52.820Z,65.61
2017-11-09T20:59:21.192Z,65.56
2017-11-09T21:01:50.420Z,65.61
2017-11-09T21:04:18.797Z,65.56
2017-11-09T21:06:47.239Z,65.54
2017-11-09T21:09:15.619Z,65.51
2017-11-09T21:11:44.009Z,65.45
2017-11-09T21:14:12.497Z,65.39
2017-11-09T21:16:40.884Z,66.44
2017-11-09T21:19:09.308Z,65.70
2017-11-09T21:21:38.484Z,65.48
2017-11-09T21:24:06.943Z,65.44
2017-11-09T21:26:35.392Z,65.42
2017-11-09T21:29:03.774Z,65.32
2017-11-09T21:31:32.167Z,65.36
2017-11-09T21:34:00.548Z,65.26
2017-11-09T21:36:28.923Z,65.34
2017-11-09T21:38:57.346Z,65.29
2017-11-09T21:41:25.781Z,65.19
2017-11-09T21:43:54.169Z,65.23
2017-11-09T21:46:22.640Z,65.26
2017-11-09T21:48:51.052Z,65.33
2017-11-09T21:51:19.431Z,65.33
2017-11-09T21:53:47.814Z,65.41
2017-11-09T21:56:16.320Z,65.39
2017-11-09T21:58:44.700Z,65.50
2017-11-09T22:01:13.874Z,65.45
2017-11-09T22:03:42.256Z,65.50
2017-11-09T22:06:10.637Z,65.52
2017-11-09T22:08:39.013Z,65.60
2017-11-09T22:11:07.395Z,65.68
2017-11-09T22:13:35.776Z,65.68
2017-11-09T22:16:04.215Z,65.75
2017-11-09T22:18:32.638Z,65.71
2017-11-09T22:21:01.035Z,65.80
2017-11-09T22:23:29.416Z,65.89
2017-11-09T22:25:58.617Z,65.95
2017-11-09T22:28:27.000Z,65.88
2017-11-09T22:30:56.147Z,65.87
2017-11-09T22:33:24.527Z,65.83
2017-11-09T22:35:52.916Z,65.83
2017-11-09T22:38:21.307Z,65.87
2017-11-09T22:40:49.675Z,65.90
2017-11-09T22:43:18.075Z,65.90
2017-11-09T22:45:46.457Z,65.93
2017-11-09T22:48:14.830Z,65.84
2017-11-09T22:50:43.205Z,65.86
2017-11-09T22:53:11.586Z,65.83
2017-11-09T22:55:39.960Z,65.75
2017-11-09T22:58:10.316Z,65.77
2017-11-09T23:00:39.547Z,65.86
2017-11-09T23:03:07.938Z,65.79
2017-11-09T23:05:36.308Z,65.81
2017-11-09T23:08:04.672Z,65.86
2017-11-09T23:10:33.833Z,65.85
2017-11-09T23:13:02.207Z,65.93
2017-11-09T23:15:30.572Z,65.94
2017-11-09T23:17:58.939Z,65.98
2017-11-09T23:20:27.320Z,65.96
2017-11-09T23:22:55.709Z,65.85
2017-11-09T23:25:24.092Z,65.80
2017-11-09T23:27:52.456Z,65.79
2017-11-09T23:30:20.827Z,65.72
2017-11-09T23:32:49.190Z,65.70
2017-11-09T23:35:17.555Z,65.61
2017-11-09T23:37:46.694Z,65.47
2017-11-09T23:40:15.068Z,65.52
2017-11-09T23:42:43.432Z,65.49
2017-11-09T23:45:11.802Z,65.35
2017-11-09T23:47:40.166Z,65.31
2017-11-09T23:50:09.313Z,65.19
2017-11-09T23:52:37.762Z,65.16
2017-11-09T23:55:06.139Z,65.17
2017-11-09T23:57:34.524Z,65.17
